Time;durP1;ratioP1;P1;durP2;ratioP2;P2;SDS_P1;SDS_P2;PMS_P1;PMS_P2;Temp;Humidity;BMP_temperature;BMP_pressure;BME280_temperature;BME280_humidity;BME280_pressure;Samples;Min_cycle;Max_cycle;Signal;HPM_P1;HPM_P2
2023/06/14 00:00:12;;;;;;;7.13;3.50;;;20.60;68.90;;;;;;4947703;28;20024;-73
2023/06/14 00:02:41;;;;;;;6.68;3.65;;;20.60;69.00;;;;;;4950727;28;20023;-73
2023/06/14 00:05:07;;;;;;;4.65;3.50;;;20.60;69.40;;;;;;4947710;29;20510;-72
2023/06/14 00:07:43;;;;;;;8.23;3.80;;;20.50;69.50;;;;;;4954598;28;20457;-72
2023/06/14 00:10:10;;;;;;;8.90;3.75;;;20.50;69.80;;;;;;4953397;28;20033;-72
2023/06/14 00:12:36;;;;;;;11.57;3.65;;;20.50;70.00;;;;;;4954532;28;20031;-72
2023/06/14 00:15:02;;;;;;;8.07;4.07;;;20.50;70.10;;;;;;4954376;29;20031;-73
2023/06/14 00:17:30;;;;;;;8.25;3.83;;;20.40;70.20;;;;;;4954193;28;20051;-73
2023/06/14 00:19:56;;;;;;;9.95;3.42;;;20.40;70.40;;;;;;4952892;29;20022;-72
2023/06/14 00:22:24;;;;;;;6.00;3.33;;;20.40;70.50;;;;;;4953390;28;20050;-72
2023/06/14 00:24:50;;;;;;;8.82;4.20;;;20.40;70.80;;;;;;4947945;28;20098;-72
2023/06/14 00:27:16;;;;;;;7.78;3.80;;;20.40;71.30;;;;;;4952333;28;20035;-72
2023/06/14 00:29:42;;;;;;;7.72;3.67;;;20.30;71.50;;;;;;4950254;29;20056;-72
2023/06/14 00:32:08;;;;;;;11.80;4.55;;;20.30;71.80;;;;;;4945253;28;20030;-72
2023/06/14 00:34:33;;;;;;;13.20;4.20;;;20.30;72.20;;;;;;4939269;29;20067;-72
2023/06/14 00:37:00;;;;;;;9.25;4.13;;;20.20;72.50;;;;;;4950131;29;20039;-72
2023/06/14 00:39:25;;;;;;;8.73;3.70;;;20.20;72.70;;;;;;4945173;29;20054;-72
2023/06/14 00:41:51;;;;;;;5.88;3.58;;;20.10;72.80;;;;;;4943320;28;20048;-72
2023/06/14 00:44:17;;;;;;;5.00;3.58;;;20.10;72.90;;;;;;4946845;28;20461;-72
2023/06/14 00:46:45;;;;;;;8.80;4.00;;;20.10;73.10;;;;;;4943149;29;20042;-72
2023/06/14 00:49:12;;;;;;;7.88;4.20;;;20.10;73.40;;;;;;4954037;28;20466;-72
2023/06/14 00:51:39;;;;;;;6.43;3.90;;;20.10;73.50;;;;;;4953917;28;20023;-72
2023/06/14 00:54:05;;;;;;;8.82;3.88;;;20.10;73.50;;;;;;4947730;28;20099;-73
2023/06/14 00:56:30;;;;;;;10.13;4.18;;;20.00;73.50;;;;;;4954227;28;20023;-72
2023/06/14 00:58:57;;;;;;;6.13;3.70;;;20.00;73.50;;;;;;4952933;28;20102;-72
2023/06/14 01:01:23;;;;;;;6.82;4.10;;;20.00;73.40;;;;;;4951186;29;20035;-72
2023/06/14 01:03:50;;;;;;;6.22;4.07;;;20.00;73.30;;;;;;4940722;29;20054;-72
2023/06/14 01:06:26;;;;;;;8.70;4.28;;;20.00;74.20;;;;;;4954137;28;20086;-72
2023/06/14 01:09:21;;;;;;;7.05;3.92;;;19.90;73.20;;;;;;4948428;29;20459;-72
2023/06/14 01:12:14;;;;;;;8.90;4.00;;;19.90;73.20;;;;;;4945521;29;20035;-72
2023/06/14 01:14:41;;;;;;;8.05;4.25;;;19.90;73.70;;;;;;4952480;28;20027;-72
2023/06/14 01:17:15;;;;;;;8.63;3.72;;;19.80;73.80;;;;;;4953515;28;20034;-72
2023/06/14 01:19:42;;;;;;;11.68;4.35;;;19.80;74.00;;;;;;4948895;28;20046;-72
2023/06/14 01:22:08;;;;;;;8.57;4.38;;;19.80;74.50;;;;;;4949828;29;20463;-72
2023/06/14 01:24:34;;;;;;;11.27;4.15;;;19.80;74.60;;;;;;4953053;28;20374;-72
2023/06/14 01:27:02;;;;;;;10.27;4.32;;;19.70;74.80;;;;;;4953535;28;20023;-72
2023/06/14 01:29:32;;;;;;;10.30;4.38;;;19.70;75.00;;;;;;4939682;29;20167;-72
2023/06/14 01:31:59;;;;;;;10.68;4.13;;;19.70;75.30;;;;;;4950086;29;20031;-72
2023/06/14 01:34:25;;;;;;;8.65;4.25;;;19.60;75.60;;;;;;4950684;28;20031;-72
2023/06/14 01:36:54;;;;;;;8.77;4.40;;;19.60;75.90;;;;;;4949792;28;20023;-72
2023/06/14 01:39:21;;;;;;;9.63;4.43;;;19.60;75.90;;;;;;4952031;28;20367;-72
2023/06/14 01:41:47;;;;;;;9.02;4.30;;;19.50;76.20;;;;;;4951629;28;20055;-72
2023/06/14 01:44:16;;;;;;;7.35;4.50;;;19.40;76.30;;;;;;4951199;28;20016;-72
2023/06/14 01:46:43;;;;;;;10.23;4.53;;;19.40;76.50;;;;;;4947506;28;20031;-72
2023/06/14 01:49:09;;;;;;;6.00;3.92;;;19.40;76.30;;;;;;4944792;28;20047;-72
2023/06/14 01:51:35;;;;;;;7.63;4.07;;;19.30;76.30;;;;;;4950724;28;20141;-73
2023/06/14 01:54:01;;;;;;;11.77;4.78;;;19.20;76.30;;;;;;4946156;29;20026;-72
2023/06/14 01:56:26;;;;;;;6.88;4.20;;;19.20;76.20;;;;;;4949185;28;20471;-72
2023/06/14 01:58:53;;;;;;;8.45;4.10;;;19.10;76.20;;;;;;4943107;28;20032;-72
2023/06/14 02:01:21;;;;;;;8.95;3.95;;;19.10;77.00;;;;;;4953178;28;20417;-72
2023/06/14 02:03:47;;;;;;;9.52;4.45;;;19.00;76.00;;;;;;4950553;28;20036;-72
2023/06/14 02:06:12;;;;;;;8.20;4.38;;;19.00;76.80;;;;;;4951937;28;20038;-72
2023/06/14 02:08:38;;;;;;;9.02;3.80;;;19.00;75.70;;;;;;4951173;28;20386;-72
2023/06/14 02:11:03;;;;;;;12.18;3.88;;;19.00;75.40;;;;;;4946834;29;20126;-72
2023/06/14 02:13:29;;;;;;;12.45;4.15;;;19.00;75.20;;;;;;4950708;28;20478;-72
2023/06/14 02:15:54;;;;;;;6.05;3.70;;;18.90;74.90;;;;;;4949415;28;20026;-72
2023/06/14 02:18:21;;;;;;;9.75;4.05;;;18.90;74.90;;;;;;4943443;28;20026;-72
2023/06/14 02:20:47;;;;;;;11.18;4.10;;;18.90;74.90;;;;;;4941773;28;20023;-72
2023/06/14 02:23:13;;;;;;;6.85;3.88;;;18.90;74.90;;;;;;4950463;28;20225;-72
2023/06/14 02:25:40;;;;;;;7.07;3.75;;;18.80;74.80;;;;;;4952576;28;20398;-72
2023/06/14 02:28:06;;;;;;;9.18;4.03;;;18.80;75.00;;;;;;4951297;28;20035;-72
2023/06/14 02:30:31;;;;;;;9.93;4.32;;;18.80;75.20;;;;;;4953028;28;20023;-72
2023/06/14 02:32:58;;;;;;;10.82;4.20;;;18.70;75.10;;;;;;4952427;28;20024;-72
2023/06/14 02:35:26;;;;;;;9.35;4.30;;;18.70;75.20;;;;;;4953176;28;20514;-72
2023/06/14 02:37:52;;;;;;;9.00;4.05;;;18.70;75.40;;;;;;4953285;28;20029;-72
2023/06/14 02:40:18;;;;;;;8.85;3.90;;;18.60;75.50;;;;;;4952592;28;20024;-72
2023/06/14 02:42:44;;;;;;;6.32;3.75;;;18.60;75.70;;;;;;4948200;28;20051;-72
2023/06/14 02:45:09;;;;;;;11.13;4.40;;;18.50;75.70;;;;;;4964275;28;20030;-72
2023/06/14 02:47:35;;;;;;;10.60;4.07;;;18.50;75.90;;;;;;4946987;28;20028;-72
2023/06/14 02:50:02;;;;;;;12.40;3.90;;;18.50;75.90;;;;;;4941545;29;20024;-72
2023/06/14 02:52:28;;;;;;;10.27;4.00;;;18.50;75.90;;;;;;4955007;28;20047;-72
2023/06/14 02:54:54;;;;;;;10.57;4.13;;;18.40;75.80;;;;;;4953565;28;20496;-72
2023/06/14 02:57:20;;;;;;;6.88;4.20;;;18.40;76.00;;;;;;4950554;29;20023;-72
2023/06/14 02:59:46;;;;;;;11.35;4.32;;;18.40;76.10;;;;;;4941708;29;20382;-72
2023/06/14 03:02:11;;;;;;;11.77;3.95;;;18.30;76.20;;;;;;4947186;28;20015;-72
2023/06/14 03:04:37;;;;;;;12.25;4.40;;;18.30;76.50;;;;;;4941410;28;20028;-72
2023/06/14 03:07:09;;;;;;;11.00;4.22;;;18.30;76.40;;;;;;4948499;28;20543;-72
2023/06/14 03:09:38;;;;;;;9.90;4.18;;;18.30;76.50;;;;;;4947695;28;20043;-72
2023/06/14 03:12:04;;;;;;;10.45;4.10;;;18.30;76.60;;;;;;4952192;28;20558;-72
2023/06/14 03:14:31;;;;;;;13.23;4.20;;;18.20;76.70;;;;;;4954632;29;20430;-72
2023/06/14 03:16:57;;;;;;;8.13;4.05;;;18.20;76.90;;;;;;4952234;28;20463;-72
2023/06/14 03:19:23;;;;;;;9.90;4.07;;;18.20;76.90;;;;;;4953231;28;20102;-72
2023/06/14 03:21:49;;;;;;;9.20;4.28;;;18.20;77.00;;;;;;4948149;28;20114;-72
2023/06/14 03:24:18;;;;;;;7.13;3.90;;;18.10;76.90;;;;;;4941798;29;20107;-72
2023/06/14 03:26:44;;;;;;;8.88;4.20;;;18.10;76.80;;;;;;4953849;28;20113;-72
2023/06/14 03:29:09;;;;;;;8.40;4.00;;;18.10;77.00;;;;;;4946909;28;20404;-72
2023/06/14 03:31:35;;;;;;;12.43;4.00;;;18.10;77.10;;;;;;4952216;29;20027;-72
2023/06/14 03:34:02;;;;;;;11.05;3.78;;;18.00;77.20;;;;;;4951282;28;20030;-73
2023/06/14 03:36:27;;;;;;;13.02;3.95;;;18.00;77.00;;;;;;4955346;28;20106;-72
2023/06/14 03:38:54;;;;;;;7.32;3.80;;;18.00;77.20;;;;;;4954127;29;20562;-72
2023/06/14 03:41:20;;;;;;;8.48;4.20;;;18.00;77.00;;;;;;4947947;28;20095;-72
2023/06/14 03:43:46;;;;;;;11.35;4.25;;;18.00;77.20;;;;;;4955345;28;20028;-72
2023/06/14 03:46:11;;;;;;;10.77;4.13;;;18.00;77.30;;;;;;4953605;28;20024;-72
2023/06/14 03:48:38;;;;;;;7.70;3.92;;;18.00;77.30;;;;;;4953653;29;20035;-72
2023/06/14 03:51:04;;;;;;;9.52;4.00;;;17.90;77.20;;;;;;4949498;29;20542;-72
2023/06/14 03:53:30;;;;;;;8.35;4.03;;;17.90;77.40;;;;;;4953715;29;20027;-72
2023/06/14 03:55:57;;;;;;;5.75;3.58;;;17.90;77.40;;;;;;4953601;28;20466;-72
2023/06/14 03:58:22;;;;;;;8.25;3.67;;;17.90;77.40;;;;;;4944078;29;20114;-72
2023/06/14 04:00:48;;;;;;;8.95;3.70;;;17.90;77.50;;;;;;4954869;28;20037;-72
2023/06/14 04:03:15;;;;;;;8.32;3.80;;;17.90;77.50;;;;;;4942619;28;20024;-72
2023/06/14 04:05:42;;;;;;;7.78;3.88;;;17.90;77.40;;;;;;4943204;29;20026;-73
2023/06/14 04:08:08;;;;;;;9.10;4.03;;;17.90;77.40;;;;;;4954329;28;20020;-72
2023/06/14 04:10:34;;;;;;;10.50;4.00;;;17.80;77.20;;;;;;4953710;29;20034;-73
2023/06/14 04:13:00;;;;;;;13.15;3.95;;;17.80;77.10;;;;;;4950505;28;20024;-72
2023/06/14 04:15:27;;;;;;;8.57;3.70;;;17.80;77.20;;;;;;4951668;29;20378;-72
2023/06/14 04:17:57;;;;;;;12.30;3.65;;;17.90;77.50;;;;;;4953932;28;20718;-72
2023/06/14 04:20:24;;;;;;;12.88;4.13;;;17.80;77.30;;;;;;4950490;29;20019;-72
2023/06/14 04:22:50;;;;;;;10.57;3.78;;;17.80;77.40;;;;;;4947041;28;20015;-73
2023/06/14 04:25:16;;;;;;;8.80;3.83;;;17.80;77.40;;;;;;4955040;28;20031;-72
2023/06/14 04:27:43;;;;;;;11.85;3.95;;;17.80;77.40;;;;;;4953608;28;20069;-73
2023/06/14 04:30:09;;;;;;;9.23;3.53;;;17.90;77.50;;;;;;4953085;28;20484;-72
2023/06/14 04:32:38;;;;;;;8.13;3.40;;;17.90;77.40;;;;;;4950950;29;20362;-72
2023/06/14 04:35:06;;;;;;;8.65;3.78;;;17.90;77.20;;;;;;4948934;29;20027;-73
2023/06/14 04:37:33;;;;;;;8.27;3.58;;;17.90;77.10;;;;;;4938652;29;20023;-72
2023/06/14 04:39:58;;;;;;;8.95;3.40;;;17.90;77.00;;;;;;4949535;29;20027;-73
2023/06/14 04:42:25;;;;;;;8.00;3.67;;;17.90;76.70;;;;;;4953778;28;20098;-72
2023/06/14 04:44:51;;;;;;;5.57;3.45;;;18.00;76.80;;;;;;4952884;28;20019;-72
2023/06/14 04:47:17;;;;;;;12.50;4.10;;;18.00;76.70;;;;;;4954668;28;20114;-72
2023/06/14 04:49:44;;;;;;;5.03;3.38;;;18.00;76.50;;;;;;4947536;28;20043;-72
2023/06/14 04:52:10;;;;;;;9.93;3.63;;;18.10;76.20;;;;;;4950025;28;20011;-72
2023/06/14 04:54:41;;;;;;;8.00;3.83;;;18.10;76.30;;;;;;4954009;28;20107;-78
2023/06/14 04:57:08;;;;;;;7.93;3.70;;;18.10;76.20;;;;;;4954515;28;20083;-77
2023/06/14 04:59:35;;;;;;;5.97;3.17;;;18.10;76.00;;;;;;4951462;28;20029;-76
2023/06/14 05:02:01;;;;;;;8.48;3.47;;;18.10;75.90;;;;;;4954342;28;20027;-77
2023/06/14 05:04:27;;;;;;;8.65;3.42;;;18.10;76.00;;;;;;4948476;28;20026;-77
2023/06/14 05:06:54;;;;;;;8.85;3.70;;;18.10;75.80;;;;;;4954301;28;20038;-77
2023/06/14 05:09:20;;;;;;;9.52;3.67;;;18.20;75.80;;;;;;4954007;28;20423;-77
2023/06/14 05:11:47;;;;;;;12.25;4.00;;;18.20;75.80;;;;;;4953735;28;20051;-77
2023/06/14 05:14:13;;;;;;;11.35;3.58;;;18.20;75.70;;;;;;4953708;28;20101;-76
2023/06/14 05:16:39;;;;;;;7.57;3.80;;;18.20;75.70;;;;;;4939856;28;20514;-76
2023/06/14 05:19:05;;;;;;;5.68;3.28;;;18.30;75.90;;;;;;4951469;29;20414;-77
2023/06/14 05:21:33;;;;;;;9.45;3.80;;;18.30;75.90;;;;;;4948762;28;20031;-76
2023/06/14 05:23:59;;;;;;;8.15;3.53;;;18.30;76.00;;;;;;4952187;28;20071;-78
2023/06/14 05:26:28;;;;;;;7.88;3.47;;;18.30;76.20;;;;;;4952466;29;20039;-76
2023/06/14 05:28:57;;;;;;;19.42;4.20;;;18.40;76.30;;;;;;4950887;29;20153;-76
2023/06/14 05:31:24;;;;;;;9.55;3.60;;;18.40;76.40;;;;;;4942598;28;20378;-76
2023/06/14 05:33:50;;;;;;;9.07;3.67;;;18.40;76.30;;;;;;4953728;28;20031;-75
2023/06/14 05:36:16;;;;;;;12.27;3.65;;;18.40;76.20;;;;;;4950316;28;20047;-76
2023/06/14 05:38:41;;;;;;;12.13;3.70;;;18.40;76.20;;;;;;4937004;29;20047;-76
2023/06/14 05:41:07;;;;;;;9.68;3.45;;;18.50;76.30;;;;;;4943196;28;20749;-76
2023/06/14 05:43:32;;;;;;;9.07;3.60;;;18.50;76.20;;;;;;4952441;28;20027;-76
2023/06/14 05:45:58;;;;;;;10.32;4.00;;;18.50;76.30;;;;;;4950374;28;20025;-76
2023/06/14 05:48:24;;;;;;;9.48;3.42;;;18.50;76.50;;;;;;4940778;28;20042;-77
2023/06/14 05:50:49;;;;;;;12.27;4.40;;;18.60;76.70;;;;;;4936517;29;20024;-76
2023/06/14 05:53:15;;;;;;;6.75;3.72;;;18.60;76.60;;;;;;4949521;29;20107;-77
2023/06/14 05:55:41;;;;;;;8.52;3.88;;;18.60;76.40;;;;;;4946640;28;20038;-76
2023/06/14 05:58:07;;;;;;;7.78;3.70;;;18.60;76.10;;;;;;4949229;28;20142;-76
2023/06/14 06:00:32;;;;;;;7.90;3.60;;;18.70;76.00;;;;;;4950869;28;20769;-77
2023/06/14 06:02:59;;;;;;;7.95;3.55;;;18.80;76.10;;;;;;4949191;28;20601;-76
2023/06/14 06:05:24;;;;;;;6.75;3.72;;;18.80;75.90;;;;;;4943498;28;20362;-76
2023/06/14 06:07:51;;;;;;;9.45;4.25;;;18.80;75.30;;;;;;4947100;28;20034;-77
2023/06/14 06:10:17;;;;;;;14.52;3.90;;;18.80;74.70;;;;;;4949586;28;20120;-77
2023/06/14 06:12:43;;;;;;;10.88;4.22;;;18.90;74.60;;;;;;4934503;29;20459;-77
2023/06/14 06:15:11;;;;;;;7.40;3.65;;;18.90;74.40;;;;;;4947599;28;20026;-76
2023/06/14 06:17:38;;;;;;;7.95;3.55;;;19.00;74.30;;;;;;4947753;29;20039;-76
2023/06/14 06:20:06;;;;;;;7.97;3.75;;;19.00;74.00;;;;;;4951800;28;20062;-77
2023/06/14 06:22:31;;;;;;;10.45;4.38;;;19.10;73.40;;;;;;4951922;29;20030;-76
2023/06/14 06:24:57;;;;;;;9.20;3.85;;;19.10;73.10;;;;;;4944182;29;20027;-77
2023/06/14 06:27:23;;;;;;;10.68;3.92;;;19.20;73.10;;;;;;4957117;28;20035;-76
2023/06/14 06:29:48;;;;;;;6.20;3.70;;;19.30;73.10;;;;;;4956802;28;20029;-77
2023/06/14 06:32:15;;;;;;;12.40;4.65;;;19.30;72.90;;;;;;4952909;28;20026;-75
2023/06/14 06:34:41;;;;;;;6.93;3.60;;;19.40;72.70;;;;;;4944920;28;20035;-77
2023/06/14 06:37:07;;;;;;;9.60;3.58;;;19.50;72.20;;;;;;4944925;29;20078;-77
2023/06/14 06:39:33;;;;;;;8.88;3.97;;;19.50;72.00;;;;;;4956254;28;20102;-77
2023/06/14 06:41:58;;;;;;;10.15;4.05;;;19.60;71.80;;;;;;4944275;29;20141;-76
2023/06/14 06:44:24;;;;;;;6.40;3.60;;;19.70;71.40;;;;;;4955971;28;20031;-76
2023/06/14 06:46:49;;;;;;;10.18;3.80;;;19.80;71.00;;;;;;4952237;28;20439;-77
2023/06/14 06:49:15;;;;;;;5.63;3.90;;;19.90;70.70;;;;;;4956505;28;20054;-77
2023/06/14 06:51:42;;;;;;;8.57;3.80;;;20.00;70.40;;;;;;4952113;28;20419;-77
2023/06/14 06:54:08;;;;;;;7.22;4.00;;;20.10;69.60;;;;;;4949855;28;20019;-76
2023/06/14 06:56:34;;;;;;;9.55;3.90;;;20.20;69.40;;;;;;4952043;29;20027;-76
2023/06/14 06:59:00;;;;;;;8.07;3.90;;;20.30;69.00;;;;;;4949369;28;20098;-76
2023/06/14 07:01:28;;;;;;;9.05;4.55;;;20.50;68.80;;;;;;4956492;28;20126;-76
2023/06/14 07:03:54;;;;;;;8.93;4.00;;;20.60;68.60;;;;;;4946146;28;20023;-76
2023/06/14 07:06:20;;;;;;;8.30;3.90;;;20.70;68.20;;;;;;4951809;28;20062;-77
2023/06/14 07:08:48;;;;;;;6.95;3.88;;;20.90;67.80;;;;;;4953977;29;20429;-76
2023/06/14 07:11:14;;;;;;;12.70;3.88;;;21.00;67.20;;;;;;4954290;28;20106;-74
2023/06/14 07:13:40;;;;;;;10.10;3.80;;;21.10;67.10;;;;;;4945438;28;20036;-74
2023/06/14 07:16:05;;;;;;;8.77;4.00;;;21.20;66.70;;;;;;4956246;28;20100;-74
2023/06/14 07:18:31;;;;;;;5.88;3.75;;;21.30;66.30;;;;;;4956254;28;20015;-76
2023/06/14 07:20:57;;;;;;;9.57;4.00;;;21.50;65.80;;;;;;4954990;28;20023;-76
2023/06/14 07:23:23;;;;;;;9.90;4.20;;;21.60;65.60;;;;;;4947175;28;20422;-76
2023/06/14 07:25:49;;;;;;;7.88;4.15;;;21.80;65.30;;;;;;4949653;29;20390;-76
2023/06/14 07:28:16;;;;;;;12.20;4.00;;;21.90;64.90;;;;;;4952380;29;20027;-76
2023/06/14 07:30:41;;;;;;;7.22;3.75;;;22.00;64.50;;;;;;4945313;28;20020;-76
2023/06/14 07:33:08;;;;;;;7.90;4.20;;;22.20;64.20;;;;;;4941547;29;20620;-76
2023/06/14 07:35:33;;;;;;;9.27;3.92;;;22.40;63.70;;;;;;4955360;28;20082;-76
2023/06/14 07:37:59;;;;;;;7.43;3.75;;;22.50;63.30;;;;;;4951020;28;20503;-76
2023/06/14 07:40:25;;;;;;;11.70;4.07;;;22.70;62.70;;;;;;4954211;28;20027;-76
2023/06/14 07:42:50;;;;;;;16.13;4.57;;;22.80;62.20;;;;;;4955017;28;20434;-76
2023/06/14 07:45:16;;;;;;;9.70;4.18;;;22.90;61.30;;;;;;4955901;28;20155;-76
2023/06/14 07:47:42;;;;;;;7.28;4.20;;;23.00;60.90;;;;;;4955146;28;20068;-76
2023/06/14 07:50:08;;;;;;;9.02;4.40;;;23.10;59.90;;;;;;4954623;28;20485;-76
2023/06/14 07:52:34;;;;;;;6.82;4.22;;;23.20;59.80;;;;;;4955564;28;20454;-76
2023/06/14 07:55:00;;;;;;;6.55;4.32;;;23.40;59.50;;;;;;4955587;28;20038;-76
2023/06/14 07:57:26;;;;;;;8.60;4.15;;;23.60;59.50;;;;;;4946994;28;20038;-76
2023/06/14 07:59:52;;;;;;;9.23;3.92;;;23.70;58.20;;;;;;4955650;28;20099;-76
2023/06/14 08:02:18;;;;;;;6.95;3.70;;;23.90;57.80;;;;;;4947667;28;20023;-76
2023/06/14 08:04:43;;;;;;;7.28;3.97;;;24.00;57.40;;;;;;4949898;29;20024;-76
2023/06/14 08:07:09;;;;;;;16.25;4.03;;;24.20;57.10;;;;;;4956712;28;20449;-76
2023/06/14 08:09:37;;;;;;;8.65;3.97;;;24.30;56.60;;;;;;4956787;28;20086;-76
2023/06/14 08:12:07;;;;;;;8.63;3.95;;;24.40;56.40;;;;;;4956930;28;20055;-76
2023/06/14 08:14:33;;;;;;;7.05;3.75;;;24.50;56.10;;;;;;4951245;28;20027;-75
2023/06/14 08:16:58;;;;;;;11.32;4.32;;;24.60;55.60;;;;;;4958160;28;20035;-76
2023/06/14 08:19:24;;;;;;;8.52;3.95;;;24.70;55.10;;;;;;4956639;28;20410;-76
2023/06/14 08:21:50;;;;;;;9.05;3.83;;;24.80;55.10;;;;;;4946094;28;20023;-76
2023/06/14 08:24:16;;;;;;;10.45;4.20;;;24.90;54.90;;;;;;4954237;29;20078;-77
2023/06/14 08:26:42;;;;;;;10.82;3.90;;;25.00;54.50;;;;;;4955878;28;20359;-76
2023/06/14 08:29:08;;;;;;;7.97;4.22;;;25.20;54.50;;;;;;4955646;28;20039;-76
2023/06/14 08:31:34;;;;;;;9.00;4.18;;;25.30;53.90;;;;;;4945587;28;20094;-76
2023/06/14 08:33:59;;;;;;;15.18;4.13;;;25.30;53.50;;;;;;4954309;28;20059;-76
2023/06/14 08:36:25;;;;;;;6.25;3.70;;;25.30;53.20;;;;;;4953517;29;20105;-76
2023/06/14 08:38:51;;;;;;;8.27;3.92;;;25.40;53.10;;;;;;4953689;28;20028;-76
2023/06/14 08:41:27;;;;;;;11.48;4.10;;;25.50;53.00;;;;;;4951272;29;20151;-76
2023/06/14 08:43:52;;;;;;;9.00;3.80;;;25.60;52.60;;;;;;4954775;28;20019;-76
2023/06/14 08:46:19;;;;;;;11.77;3.92;;;25.80;52.70;;;;;;4955348;28;20038;-75
2023/06/14 08:48:58;;;;;;;13.45;4.00;;;25.90;52.70;;;;;;4954588;28;20038;-75
2023/06/14 08:51:26;;;;;;;12.90;4.30;;;26.10;52.60;;;;;;4951231;29;20032;-75
2023/06/14 08:53:58;;;;;;;9.88;4.03;;;26.30;51.90;;;;;;4954219;28;20035;-75
2023/06/14 08:56:28;;;;;;;11.88;4.35;;;26.30;51.70;;;;;;4951740;28;20035;-76
2023/06/14 08:58:54;;;;;;;6.32;3.92;;;26.40;51.60;;;;;;4944200;29;20043;-75
2023/06/14 09:01:21;;;;;;;7.63;3.70;;;26.40;51.30;;;;;;4951658;28;20019;-76
2023/06/14 09:03:48;;;;;;;9.18;4.07;;;26.50;51.20;;;;;;4955590;29;20024;-76
2023/06/14 09:06:15;;;;;;;5.50;3.70;;;26.60;51.10;;;;;;4956366;28;20063;-75
2023/06/14 09:08:45;;;;;;;8.18;3.65;;;26.70;50.70;;;;;;4957424;28;20495;-75
2023/06/14 09:11:21;;;;;;;11.82;3.78;;;26.80;49.90;;;;;;4949941;28;20468;-76
2023/06/14 09:13:47;;;;;;;17.55;3.80;;;26.80;49.90;;;;;;4949995;28;20118;-76
2023/06/14 09:16:13;;;;;;;11.48;3.70;;;26.80;49.90;;;;;;4953808;28;20192;-76
2023/06/14 09:18:44;;;;;;;9.45;3.47;;;26.90;49.80;;;;;;4954920;29;20046;-75
2023/06/14 09:21:11;;;;;;;7.55;3.58;;;26.90;49.50;;;;;;4956959;28;20031;-76
2023/06/14 09:23:42;;;;;;;7.38;3.20;;;27.00;49.40;;;;;;4957217;29;20368;-76
2023/06/14 09:26:15;;;;;;;9.70;3.40;;;27.10;49.50;;;;;;4954841;28;20394;-75
2023/06/14 09:28:48;;;;;;;5.75;3.58;;;27.20;49.50;;;;;;4939418;29;20556;-76
2023/06/14 09:31:17;;;;;;;11.23;3.17;;;27.20;49.60;;;;;;4939000;28;20027;-74
2023/06/14 09:33:50;;;;;;;6.18;3.40;;;27.30;48.60;;;;;;4942259;29;20402;-75
2023/06/14 09:36:25;;;;;;;7.97;3.13;;;27.40;47.80;;;;;;4950613;28;20035;-74
2023/06/14 09:38:59;;;;;;;7.30;3.22;;;27.40;46.90;;;;;;4953517;28;20102;-75
2023/06/14 09:41:32;;;;;;;6.75;2.97;;;27.40;46.80;;;;;;4953071;28;20085;-75
2023/06/14 09:44:00;;;;;;;6.65;2.92;;;27.50;46.50;;;;;;4952276;28;20031;-75
2023/06/14 09:46:27;;;;;;;7.75;3.60;;;27.60;47.00;;;;;;4950500;28;20087;-75
2023/06/14 09:48:53;;;;;;;6.90;3.13;;;27.70;47.20;;;;;;4949510;28;20485;-74
2023/06/14 09:51:20;;;;;;;7.60;3.35;;;27.70;46.60;;;;;;4953265;28;20059;-75
2023/06/14 09:53:48;;;;;;;6.38;2.97;;;27.80;46.90;;;;;;4946040;29;20085;-75
2023/06/14 09:56:22;;;;;;;6.53;3.03;;;27.90;46.70;;;;;;4945896;28;20165;-75
2023/06/14 09:58:50;;;;;;;4.30;3.08;;;28.00;46.80;;;;;;4944663;28;20042;-76
2023/06/14 10:01:17;;;;;;;9.88;2.97;;;28.10;46.30;;;;;;4945989;28;20031;-75
2023/06/14 10:03:45;;;;;;;9.20;3.50;;;28.30;46.30;;;;;;4950107;29;20031;-75
2023/06/14 10:06:10;;;;;;;8.15;3.15;;;28.30;45.80;;;;;;4943810;29;20027;-75
2023/06/14 10:08:37;;;;;;;4.80;2.88;;;28.40;45.80;;;;;;4951352;28;20039;-75
2023/06/14 10:11:04;;;;;;;10.63;3.20;;;28.50;45.50;;;;;;4942721;29;20159;-75
2023/06/14 10:13:33;;;;;;;7.10;3.00;;;28.60;45.20;;;;;;4953077;28;20685;-75
2023/06/14 10:16:14;;;;;;;5.30;2.60;;;28.60;45.20;;;;;;4950926;28;20024;-75
2023/06/14 10:18:56;;;;;;;5.97;2.90;;;28.70;45.30;;;;;;4953423;28;20023;-75
2023/06/14 10:21:27;;;;;;;4.00;2.67;;;28.80;44.90;;;;;;4953323;28;20573;-75
2023/06/14 10:23:53;;;;;;;6.28;2.88;;;28.80;44.20;;;;;;4952018;28;20033;-75
2023/06/14 10:26:23;;;;;;;5.13;2.80;;;28.80;44.00;;;;;;4953264;28;20023;-75
2023/06/14 10:29:10;;;;;;;6.35;2.65;;;28.90;44.20;;;;;;4953367;28;20045;-74
2023/06/14 10:31:50;;;;;;;6.68;2.67;;;29.00;43.80;;;;;;4949898;29;20035;-75
2023/06/14 10:34:23;;;;;;;6.72;2.55;;;29.00;43.20;;;;;;4949001;28;20092;-75
2023/06/14 10:37:02;;;;;;;7.72;2.67;;;28.90;42.70;;;;;;4949835;29;20031;-75
2023/06/14 10:39:28;;;;;;;6.05;2.47;;;29.00;42.40;;;;;;4953502;28;20351;-75
2023/06/14 10:41:55;;;;;;;7.07;2.53;;;29.00;42.00;;;;;;4952328;28;20051;-75
2023/06/14 10:44:21;;;;;;;4.53;2.60;;;29.10;41.70;;;;;;4953239;28;20035;-75
2023/06/14 10:46:53;;;;;;;4.30;2.25;;;29.20;42.20;;;;;;4953040;28;20479;-75
2023/06/14 10:49:20;;;;;;;5.18;2.38;;;29.30;41.20;;;;;;4953075;28;20055;-75
2023/06/14 10:51:50;;;;;;;6.45;2.35;;;29.40;40.90;;;;;;4953127;28;20467;-75
2023/06/14 10:54:23;;;;;;;5.90;2.40;;;29.40;40.80;;;;;;4948450;28;20044;-75
2023/06/14 10:56:53;;;;;;;8.52;2.60;;;29.40;40.80;;;;;;4948949;29;20027;-75
2023/06/14 10:59:20;;;;;;;4.60;2.30;;;29.50;41.20;;;;;;4949676;28;20464;-75
2023/06/14 11:02:04;;;;;;;5.32;2.67;;;29.70;40.90;;;;;;4949702;29;20037;-75
2023/06/14 11:04:51;;;;;;;4.65;2.50;;;29.60;40.90;;;;;;4942587;28;20024;-75
2023/06/14 11:07:50;;;;;;;9.05;2.58;;;29.70;40.50;;;;;;4943678;29;20031;-75
2023/06/14 11:10:38;;;;;;;5.50;2.38;;;29.70;40.50;;;;;;4942019;28;20086;-75
2023/06/14 11:13:04;;;;;;;4.75;2.20;;;29.60;40.80;;;;;;4950632;29;20027;-75
2023/06/14 11:15:34;;;;;;;5.43;2.22;;;29.70;40.60;;;;;;4956001;28;20451;-75
2023/06/14 11:18:01;;;;;;;6.53;2.13;;;29.70;40.70;;;;;;4948591;28;20031;-75
2023/06/14 11:20:30;;;;;;;6.38;2.35;;;29.80;40.60;;;;;;4956076;28;20510;-76
2023/06/14 11:22:55;;;;;;;5.60;2.40;;;29.80;40.60;;;;;;4952804;28;20023;-75
2023/06/14 11:25:21;;;;;;;3.15;2.08;;;29.90;40.50;;;;;;4955847;28;20019;-75
2023/06/14 11:27:50;;;;;;;8.32;2.33;;;30.00;40.40;;;;;;4955966;28;20560;-75
2023/06/14 11:30:15;;;;;;;6.32;2.45;;;30.20;40.70;;;;;;4950290;28;20060;-75
2023/06/14 11:32:42;;;;;;;4.07;2.13;;;30.20;39.50;;;;;;4952202;28;20023;-75
2023/06/14 11:35:09;;;;;;;4.85;2.00;;;30.20;39.50;;;;;;4953770;28;20058;-74
2023/06/14 11:37:39;;;;;;;3.85;1.90;;;30.30;39.20;;;;;;4955148;28;20073;-75
2023/06/14 11:40:09;;;;;;;3.95;1.67;;;30.40;39.10;;;;;;4951449;28;20019;-75
2023/06/14 11:42:35;;;;;;;3.97;1.95;;;30.50;38.70;;;;;;4942939;28;20084;-76
2023/06/14 11:45:02;;;;;;;7.32;2.20;;;30.50;38.80;;;;;;4954729;29;20031;-75
2023/06/14 11:47:32;;;;;;;4.68;2.15;;;30.60;38.60;;;;;;4955289;29;20027;-75
2023/06/14 11:49:59;;;;;;;4.55;1.90;;;30.60;38.10;;;;;;4955612;28;20027;-75
2023/06/14 11:52:24;;;;;;;5.32;1.90;;;30.60;38.20;;;;;;4955662;28;20023;-75
2023/06/14 11:54:50;;;;;;;3.67;1.83;;;30.50;37.80;;;;;;4955270;28;20114;-76
2023/06/14 11:57:18;;;;;;;3.60;2.10;;;30.50;38.00;;;;;;4955533;28;20024;-76
2023/06/14 11:59:45;;;;;;;5.10;2.08;;;30.50;38.00;;;;;;4955524;28;20016;-76
2023/06/14 12:02:18;;;;;;;4.20;1.90;;;30.40;37.70;;;;;;4955204;28;20390;-76
2023/06/14 12:04:46;;;;;;;2.33;1.95;;;30.50;37.50;;;;;;4954766;28;20126;-76
2023/06/14 12:07:17;;;;;;;8.05;1.92;;;30.50;37.10;;;;;;4955245;28;20110;-76
2023/06/14 12:10:07;;;;;;;4.00;2.00;;;30.70;37.10;;;;;;4954637;28;20066;-75
2023/06/14 12:12:36;;;;;;;4.85;1.98;;;30.80;37.70;;;;;;4947488;29;20598;-76
2023/06/14 12:15:05;;;;;;;2.67;1.90;;;30.90;37.30;;;;;;4944272;28;20024;-76
2023/06/14 12:17:34;;;;;;;5.00;1.80;;;30.80;37.30;;;;;;4954554;29;20038;-75
2023/06/14 12:20:06;;;;;;;5.18;1.80;;;30.80;37.30;;;;;;4954085;28;20026;-75
2023/06/14 12:22:32;;;;;;;3.47;1.60;;;30.80;37.30;;;;;;4953622;28;20030;-75
2023/06/14 12:24:57;;;;;;;3.33;1.75;;;30.90;36.80;;;;;;4954923;28;20019;-75
2023/06/14 12:27:25;;;;;;;3.05;1.90;;;31.00;36.70;;;;;;4953426;29;20032;-76
2023/06/14 12:30:02;;;;;;;7.18;1.90;;;31.00;36.70;;;;;;4952557;29;20034;-76
2023/06/14 12:32:29;;;;;;;5.53;2.00;;;31.10;37.10;;;;;;4954662;28;20027;-76
2023/06/14 12:34:54;;;;;;;5.32;1.95;;;31.10;37.20;;;;;;4948831;28;20371;-76
2023/06/14 12:37:20;;;;;;;3.45;1.85;;;31.10;37.30;;;;;;4950448;29;20031;-76
2023/06/14 12:39:46;;;;;;;7.82;1.80;;;31.10;37.40;;;;;;4954565;28;20781;-76
2023/06/14 12:42:13;;;;;;;5.15;2.00;;;31.10;37.60;;;;;;4945687;28;20055;-76
2023/06/14 12:44:40;;;;;;;5.35;1.77;;;31.00;37.90;;;;;;4952073;29;20024;-76
2023/06/14 12:47:07;;;;;;;3.40;1.95;;;31.10;38.00;;;;;;4954409;28;20042;-76